createdAt,value
2016-12-10T03:32:42.909Z,2.69
2016-12-10T03:33:52.927Z,2.58
2016-12-10T03:35:02.936Z,2.63
2016-12-10T03:36:12.672Z,2.7
2016-12-10T03:37:22.980Z,2.77
2016-12-10T03:38:33.304Z,2.9
2016-12-10T03:39:43.324Z,3.01
2016-12-10T03:40:53.015Z,3.17
2016-12-10T03:42:03.351Z,3.32
2016-12-10T03:43:13.368Z,3.54
2016-12-10T03:44:23.689Z,3.74
2016-12-10T03:45:34.000Z,3.89
2016-12-10T03:46:43.708Z,4.1
2016-12-10T03:47:54.030Z,4.15
2016-12-10T03:49:04.045Z,4.35
2016-12-10T03:50:14.057Z,4.47
2016-12-10T03:51:24.074Z,4.64
2016-12-10T03:52:34.417Z,4.71
2016-12-10T03:53:44.428Z,4.97
2016-12-10T03:54:54.476Z,5.06
2016-12-10T03:56:04.828Z,5.21
2016-12-10T03:57:15.165Z,5.3
2016-12-10T03:58:25.173Z,5.27
2016-12-10T03:59:35.193Z,5.51
2016-12-10T04:00:45.212Z,5.62
2016-12-10T04:01:55.291Z,5.59
2016-12-10T04:03:05.604Z,5.77
2016-12-10T04:04:15.940Z,5.8
2016-12-10T04:05:25.966Z,5.78
2016-12-10T04:06:36.329Z,5.84
2016-12-10T04:07:46.026Z,5.89
2016-12-10T04:08:56.040Z,5.89
2016-12-10T04:10:06.057Z,5.99
2016-12-10T04:11:16.384Z,6
2016-12-10T04:12:26.711Z,5.89
2016-12-10T04:13:37.042Z,5.99
2016-12-10T04:14:46.120Z,5.98
2016-12-10T04:15:56.464Z,6
2016-12-10T04:17:06.493Z,5.99
2016-12-10T04:18:16.840Z,5.99
2016-12-10T04:19:26.890Z,5.95
2016-12-10T04:20:37.213Z,5.99
2016-12-10T04:21:47.241Z,5.91
2016-12-10T04:22:57.567Z,6.03
2016-12-10T04:24:07.897Z,6.03
2016-12-10T04:25:17.918Z,6.09
2016-12-10T04:26:28.237Z,6.15
2016-12-10T04:27:38.583Z,6.1
2016-12-10T04:28:48.599Z,6.09
2016-12-10T04:29:58.308Z,6.09
2016-12-10T04:31:08.638Z,6.17
2016-12-10T04:32:18.033Z,6.15
2016-12-10T04:33:28.352Z,6.13
2016-12-10T04:34:38.707Z,6.1
2016-12-10T04:35:48.733Z,6.13
2016-12-10T04:36:59.060Z,6.17
2016-12-10T04:38:09.387Z,6.13
2016-12-10T04:39:19.428Z,6.1
2016-12-10T04:40:29.436Z,6.14
2016-12-10T04:41:39.767Z,6.2
2016-12-10T04:42:50.099Z,6.14
2016-12-10T04:44:00.421Z,6.18
2016-12-10T04:45:10.732Z,6.18
2016-12-10T04:46:21.061Z,6.25
2016-12-10T04:47:31.071Z,6.29
2016-12-10T04:48:40.456Z,6.29
2016-12-10T04:49:50.468Z,6.34
2016-12-10T04:51:00.490Z,6.33
2016-12-10T04:52:10.512Z,6.34
2016-12-10T04:53:20.545Z,6.37
2016-12-10T04:54:30.565Z,6.44
2016-12-10T04:55:40.271Z,6.46
2016-12-10T04:56:49.977Z,6.46
2016-12-10T04:58:00.315Z,6.52
2016-12-10T04:59:10.013Z,6.47
2016-12-10T05:00:19.718Z,6.46
2016-12-10T05:01:30.035Z,6.43
2016-12-10T05:02:40.066Z,6.44
2016-12-10T05:03:50.415Z,6.51
2016-12-10T05:05:00.120Z,6.46
2016-12-10T05:06:10.443Z,6.49
2016-12-10T05:07:20.453Z,6.47
2016-12-10T05:08:30.461Z,6.44
2016-12-10T05:09:40.820Z,6.51
2016-12-10T05:10:51.134Z,6.55
2016-12-10T05:12:01.146Z,6.54
2016-12-10T05:13:11.163Z,6.55
2016-12-10T05:14:21.498Z,6.57
2016-12-10T05:15:31.812Z,6.42
2016-12-10T05:16:42.136Z,6.47
2016-12-10T05:17:52.463Z,6.42
2016-12-10T05:19:01.888Z,6.33
2016-12-10T05:20:12.222Z,6.37
2016-12-10T05:21:21.929Z,6.25
2016-12-10T05:22:31.950Z,6.28
2016-12-10T05:23:42.273Z,6.2
2016-12-10T05:24:52.294Z,6.29
2016-12-10T05:26:02.306Z,6.24
2016-12-10T05:27:12.622Z,6.29
2016-12-10T05:28:22.959Z,6.26
2016-12-10T05:29:33.268Z,6.29
2016-12-10T05:30:43.284Z,6.36
2016-12-10T05:31:53.296Z,6.33
2016-12-10T05:33:03.617Z,6.37
2016-12-10T05:34:13.943Z,6.34
2016-12-10T05:35:24.278Z,6.31
2016-12-10T05:36:34.597Z,6.33
2016-12-10T05:37:44.929Z,6.37
2016-12-10T05:38:54.939Z,6.39
2016-12-10T05:40:04.950Z,6.34
2016-12-10T05:41:15.293Z,6.28
2016-12-10T05:42:25.305Z,6.28
2016-12-10T05:43:35.627Z,6.36
2016-12-10T05:44:45.649Z,6.36
2016-12-10T05:45:55.649Z,6.31
2016-12-10T05:47:05.366Z,6.28
2016-12-10T05:48:15.417Z,6.29
2016-12-10T05:49:25.759Z,6.29
2016-12-10T05:50:35.466Z,6.26
2016-12-10T05:51:45.479Z,6.15
2016-12-10T05:52:55.804Z,6.28
2016-12-10T05:54:05.821Z,6.26
2016-12-10T05:55:16.143Z,6.2
2016-12-10T05:56:26.160Z,6.24
2016-12-10T05:57:36.470Z,6.25
2016-12-10T05:58:46.472Z,6.2
2016-12-10T05:59:56.806Z,6.15
2016-12-10T06:01:07.122Z,6.15
2016-12-10T06:02:17.137Z,6.07
2016-12-10T06:03:26.836Z,6.13
2016-12-10T06:04:37.176Z,6.1
2016-12-10T06:05:47.187Z,6.17
2016-12-10T06:06:57.523Z,6.15
2016-12-10T06:08:07.540Z,6.28
2016-12-10T06:09:16.921Z,6.28
2016-12-10T06:10:27.255Z,6.21
2016-12-10T06:11:37.260Z,6.21
2016-12-10T06:12:47.600Z,6.29
2016-12-10T06:13:57.917Z,6.28
2016-12-10T06:15:07.544Z,6.28
2016-12-10T06:16:17.896Z,6.34
2016-12-10T06:17:27.912Z,6.43
2016-12-10T06:18:37.930Z,6.7
2016-12-10T06:19:47.646Z,6.78
2016-12-10T06:20:57.667Z,6.94
2016-12-10T06:22:07.999Z,7.08
2016-12-10T06:23:18.324Z,7.26
2016-12-10T06:24:28.377Z,7.48
2016-12-10T06:25:37.799Z,7.73
2016-12-10T06:26:47.480Z,7.98
2016-12-10T06:27:57.167Z,8.11
2016-12-10T06:29:07.178Z,8.34
2016-12-10T06:30:17.505Z,8.42
2016-12-10T06:31:27.862Z,8.58
2016-12-10T06:32:37.875Z,8.76
2016-12-10T06:33:48.209Z,8.89
2016-12-10T06:34:58.245Z,9
2016-12-10T06:36:08.271Z,9.21
2016-12-10T06:37:17.979Z,9.24
2016-12-10T06:38:27.682Z,9.41
2016-12-10T06:39:38.014Z,9.5
2016-12-10T06:40:47.715Z,9.57
2016-12-10T06:41:58.316Z,9.72
2016-12-10T06:43:08.053Z,9.88
2016-12-10T06:44:17.750Z,9.9
2016-12-10T06:45:28.008Z,9.95
2016-12-10T06:46:38.333Z,10.11
2016-12-10T06:47:48.665Z,10.18
2016-12-10T06:48:58.678Z,10.35
2016-12-10T06:50:08.073Z,10.57
2016-12-10T06:51:18.392Z,10.58
2016-12-10T06:52:28.427Z,10.66
2016-12-10T06:53:38.791Z,10.79
2016-12-10T06:54:48.507Z,10.8
2016-12-10T06:55:58.836Z,10.98
2016-12-10T06:57:08.562Z,10.95
2016-12-10T06:58:18.589Z,11.05
2016-12-10T06:59:28.303Z,11.2
2016-12-10T07:00:38.627Z,11.23
2016-12-10T07:01:48.340Z,11.34
2016-12-10T07:02:58.372Z,11.38
2016-12-10T07:04:07.772Z,11.41
2016-12-10T07:05:18.141Z,11.48
2016-12-10T07:06:28.155Z,11.71
2016-12-10T07:07:37.872Z,11.71
2016-12-10T07:08:47.576Z,11.79
2016-12-10T07:09:57.907Z,11.94
2016-12-10T07:11:08.244Z,12.03
2016-12-10T07:12:17.960Z,12.11
2016-12-10T07:13:27.985Z,12.29
2016-12-10T07:14:38.307Z,12.34
2016-12-10T07:15:48.041Z,12.45
2016-12-10T07:16:58.052Z,12.55
2016-12-10T07:18:07.758Z,12.47
2016-12-10T07:19:18.101Z,12.52
2016-12-10T07:20:27.855Z,12.52
2016-12-10T07:21:38.200Z,12.7
2016-12-10T07:22:47.929Z,12.88
2016-12-10T07:23:57.641Z,12.8
2016-12-10T07:25:07.676Z,12.91
2016-12-10T07:26:17.690Z,12.95
2016-12-10T07:27:27.091Z,13.03
2016-12-10T07:28:37.119Z,13.1
2016-12-10T07:29:47.139Z,13.21
2016-12-10T07:30:57.166Z,13.25
2016-12-10T07:32:06.569Z,13.31
2016-12-10T07:33:16.889Z,13.5
2016-12-10T07:34:27.229Z,13.53
2016-12-10T07:35:37.574Z,13.62
2016-12-10T07:36:47.281Z,13.55
2016-12-10T07:37:57.637Z,13.63
2016-12-10T07:39:07.664Z,13.73
2016-12-10T07:40:17.052Z,13.84
2016-12-10T07:41:27.381Z,13.93
2016-12-10T07:42:37.444Z,13.93
2016-12-10T07:43:47.460Z,14.01
2016-12-10T07:44:57.187Z,14.06
2016-12-10T07:46:07.523Z,14.19
2016-12-10T07:47:17.252Z,14.2
2016-12-10T07:48:27.604Z,14.28
2016-12-10T07:49:37.936Z,14.36
2016-12-10T07:50:48.021Z,14.36
2016-12-10T07:51:58.362Z,14.42
2016-12-10T07:53:08.401Z,14.36
2016-12-10T07:54:18.112Z,14.38
2016-12-10T07:55:28.470Z,14.41
2016-12-10T07:56:38.488Z,14.48
2016-12-10T07:57:48.824Z,14.51
2016-12-10T07:58:59.173Z,14.51
2016-12-10T08:00:09.512Z,14.48
2016-12-10T08:01:19.854Z,14.49
2016-12-10T08:02:29.876Z,14.49
2016-12-10T08:03:39.597Z,14.51
2016-12-10T08:04:49.920Z,14.49
2016-12-10T08:06:00.262Z,14.51
2016-12-10T08:07:10.601Z,14.3
2016-12-10T08:08:20.934Z,14.38
2016-12-10T08:09:30.967Z,14.33
2016-12-10T08:10:40.679Z,14.33
2016-12-10T08:11:50.374Z,14.28
2016-12-10T08:13:00.714Z,14.41
2016-12-10T08:14:10.428Z,14.52
2016-12-10T08:15:20.761Z,14.53
2016-12-10T08:16:30.477Z,14.45
2016-12-10T08:17:40.498Z,14.59
2016-12-10T08:18:50.829Z,14.52
2016-12-10T08:20:01.171Z,14.59
2016-12-10T08:21:11.216Z,14.64
2016-12-10T08:22:21.244Z,14.66
2016-12-10T08:23:30.676Z,14.79
2016-12-10T08:24:40.994Z,14.77
2016-12-10T08:25:51.034Z,14.75
2016-12-10T08:27:01.390Z,14.95
2016-12-10T08:28:11.422Z,14.98
2016-12-10T08:29:21.764Z,14.89
2016-12-10T08:30:31.800Z,14.86
2016-12-10T08:31:41.529Z,14.89
2016-12-10T08:32:51.861Z,14.93
2016-12-10T08:34:02.201Z,15.08
2016-12-10T08:35:12.543Z,15.13
2016-12-10T08:36:22.884Z,15.13
2016-12-10T08:37:33.215Z,15.26
2016-12-10T08:38:43.238Z,15.33
2016-12-10T08:39:52.945Z,15.43
2016-12-10T08:41:03.271Z,15.44
2016-12-10T08:42:13.293Z,15.44
2016-12-10T08:43:23.315Z,15.58
2016-12-10T08:44:33.667Z,15.59
2016-12-10T08:45:44.004Z,15.65
2016-12-10T08:46:54.364Z,15.62
2016-12-10T08:48:04.080Z,15.71
2016-12-10T08:49:14.142Z,15.78
2016-12-10T08:50:24.184Z,15.73
2016-12-10T08:51:34.596Z,15.77
2016-12-10T08:52:44.655Z,15.84
2016-12-10T08:53:54.669Z,15.88
2016-12-10T08:55:04.701Z,15.93
2016-12-10T08:56:15.038Z,15.83
2016-12-10T08:57:25.404Z,15.92
2016-12-10T08:58:35.130Z,15.89
2016-12-10T08:59:45.168Z,15.84
2016-12-10T09:00:55.514Z,15.89
2016-12-10T09:02:05.551Z,15.89
2016-12-10T09:03:15.913Z,15.88
2016-12-10T09:04:26.249Z,15.96
2016-12-10T09:05:36.300Z,15.92
2016-12-10T09:06:46.642Z,15.99
2016-12-10T09:07:56.685Z,15.98
2016-12-10T09:09:07.017Z,16.14
2016-12-10T09:10:16.756Z,16.21
2016-12-10T09:11:26.774Z,16.26
2016-12-10T09:12:37.116Z,16.29
2016-12-10T09:13:47.463Z,16.39
2016-12-10T09:14:57.793Z,16.47
2016-12-10T09:16:07.809Z,16.59
2016-12-10T09:17:17.861Z,16.67
2016-12-10T09:18:27.897Z,16.82
2016-12-10T09:19:37.613Z,16.85
2016-12-10T09:20:47.642Z,16.94
2016-12-10T09:21:57.658Z,17.09
2016-12-10T09:23:07.719Z,17.09
2016-12-10T09:24:18.068Z,17.13
2016-12-10T09:25:28.461Z,17.12
2016-12-10T09:26:38.806Z,17.39
2016-12-10T09:27:48.531Z,17.49
2016-12-10T09:28:58.884Z,17.54
2016-12-10T09:30:09.230Z,17.47
2016-12-10T09:31:19.260Z,17.49
2016-12-10T09:32:29.297Z,17.63
2016-12-10T09:33:39.643Z,17.66
2016-12-10T09:34:49.658Z,17.69
2016-12-10T09:35:59.997Z,17.76
2016-12-10T09:37:10.026Z,17.9
2016-12-10T09:38:20.356Z,17.84
2016-12-10T09:39:30.392Z,17.98
2016-12-10T09:40:40.739Z,18.08
2016-12-10T09:41:51.086Z,18.21
2016-12-10T09:43:01.147Z,18.11
2016-12-10T09:44:11.482Z,18.45
2016-12-10T09:45:21.511Z,18.75
2016-12-10T09:46:31.858Z,19.34
2016-12-10T09:47:42.185Z,19.86
2016-12-10T09:48:52.225Z,19.53
2016-12-10T09:50:02.572Z,19.31
2016-12-10T09:51:12.914Z,19.07
2016-12-10T09:52:22.670Z,18.94
2016-12-10T09:53:33.022Z,18.82
2016-12-10T09:54:43.379Z,18.86
2016-12-10T09:55:53.392Z,18.82
2016-12-10T09:57:03.744Z,18.75
2016-12-10T09:58:13.774Z,18.74
2016-12-10T09:59:24.018Z,18.79
2016-12-10T10:00:34.058Z,18.78
2016-12-10T10:01:44.405Z,18.71
2016-12-10T10:02:54.417Z,18.72
2016-12-10T10:04:04.764Z,18.87
2016-12-10T10:05:14.169Z,18.89
2016-12-10T10:06:24.503Z,18.93
2016-12-10T10:07:34.845Z,18.9
2016-12-10T10:08:45.191Z,18.96
2016-12-10T10:09:55.534Z,18.9
2016-12-10T10:11:05.575Z,18.87
2016-12-10T10:12:15.607Z,18.86
2016-12-10T10:13:25.937Z,18.89
2016-12-10T10:14:35.966Z,19.05
2016-12-10T10:15:45.706Z,19.15
2016-12-10T10:16:56.055Z,19.19
2016-12-10T10:18:06.105Z,19.2
2016-12-10T10:19:16.457Z,19.19
2016-12-10T10:20:26.474Z,19.09
2016-12-10T10:21:36.820Z,19.15
2016-12-10T10:22:47.166Z,19.13
2016-12-10T10:23:56.579Z,18.96
2016-12-10T10:25:06.311Z,18.97
2016-12-10T10:26:16.332Z,19.02
2016-12-10T10:27:26.349Z,18.97
2016-12-10T10:28:36.710Z,18.94
2016-12-10T10:29:47.053Z,18.94
2016-12-10T10:30:57.379Z,19.05
2016-12-10T10:32:07.706Z,19.07
2016-12-10T10:33:18.043Z,18.96
2016-12-10T10:34:28.390Z,18.91
2016-12-10T10:35:38.427Z,18.89
2016-12-10T10:36:48.478Z,18.87
2016-12-10T10:37:58.744Z,18.86
2016-12-10T10:39:08.763Z,18.97
2016-12-10T10:40:18.485Z,19.05
2016-12-10T10:41:28.845Z,19.06
2016-12-10T10:42:39.181Z,19.02
2016-12-10T10:43:49.518Z,19
2016-12-10T10:44:59.859Z,19.07
2016-12-10T10:46:09.902Z,18.97
2016-12-10T10:47:19.979Z,19.12
2016-12-10T10:48:30.335Z,18.97
2016-12-10T10:49:40.678Z,18.96
2016-12-10T10:50:51.023Z,18.97
2016-12-10T10:52:01.040Z,19.13
2016-12-10T10:53:10.741Z,19.23
2016-12-10T10:54:21.079Z,19.28
2016-12-10T10:55:30.500Z,19.56
2016-12-10T10:56:40.837Z,19.67
2016-12-10T10:57:51.170Z,19.7
2016-12-10T10:59:00.905Z,19.79
2016-12-10T11:00:10.972Z,19.68
2016-12-10T11:01:20.990Z,19.78
2016-12-10T11:02:31.370Z,19.65
2016-12-10T11:03:41.073Z,19.78
2016-12-10T11:04:50.185Z,19.75
2016-12-10T11:06:00.555Z,19.67
2016-12-10T11:07:10.586Z,19.63
2016-12-10T11:08:20.305Z,19.75
2016-12-10T11:09:30.651Z,19.72
2016-12-10T11:10:40.398Z,19.85
2016-12-10T11:11:50.455Z,20.02
2016-12-10T11:13:00.490Z,20.08
2016-12-10T11:14:10.823Z,20.16
2016-12-10T11:15:20.841Z,20.29
2016-12-10T11:16:31.174Z,20.37
2016-12-10T11:17:41.512Z,20.44
2016-12-10T11:18:51.541Z,20.46
2016-12-10T11:20:01.891Z,20.32
2016-12-10T11:21:12.248Z,20.27
2016-12-10T11:22:22.284Z,20.26
2016-12-10T11:23:32.631Z,20.19
2016-12-10T11:24:42.953Z,20.27
2016-12-10T11:25:53.290Z,20.44
2016-12-10T11:27:03.611Z,20.35
2016-12-10T11:28:13.970Z,20.4
2016-12-10T11:29:24.325Z,20.44
2016-12-10T11:30:34.367Z,20.38
2016-12-10T11:31:44.414Z,20.38
2016-12-10T11:32:54.760Z,20.41
2016-12-10T11:34:05.107Z,20.42
2016-12-10T11:35:15.134Z,20.41
2016-12-10T11:36:25.152Z,20.44
2016-12-10T11:37:35.178Z,20.35
2016-12-10T11:38:45.544Z,20.22
2016-12-10T11:39:55.266Z,20.25
2016-12-10T11:41:04.998Z,20.16
2016-12-10T11:42:15.030Z,20.02
2016-12-10T11:43:25.068Z,20.04
2016-12-10T11:44:35.098Z,19.95
2016-12-10T11:45:45.135Z,19.9
2016-12-10T11:46:54.871Z,19.86
2016-12-10T11:48:05.233Z,19.85
2016-12-10T11:49:15.255Z,19.74
2016-12-10T11:50:25.602Z,19.68
2016-12-10T11:51:35.620Z,19.63
2016-12-10T11:52:45.337Z,19.61
2016-12-10T11:53:55.370Z,19.61
2016-12-10T11:55:05.719Z,19.64
2016-12-10T11:56:15.757Z,19.65
2016-12-10T11:57:26.100Z,19.63
2016-12-10T11:58:35.845Z,19.74
2016-12-10T11:59:46.235Z,19.65
2016-12-10T12:00:56.584Z,19.61
2016-12-10T12:02:07.160Z,19.68
2016-12-10T12:03:17.186Z,19.57
2016-12-10T12:04:27.213Z,19.53
2016-12-10T12:05:37.250Z,19.32
2016-12-10T12:06:47.615Z,19.46
2016-12-10T12:07:57.960Z,19.35
2016-12-10T12:09:07.996Z,19.45
2016-12-10T12:10:18.339Z,19.49
2016-12-10T12:11:28.360Z,19.56
2016-12-10T12:12:38.702Z,19.65
2016-12-10T12:13:49.058Z,19.98
2016-12-10T12:14:59.090Z,20.4
2016-12-10T12:16:09.111Z,21.36
2016-12-10T12:17:19.162Z,22.42
2016-12-10T12:18:29.515Z,22.81
2016-12-10T12:19:39.548Z,22.92
2016-12-10T12:20:49.584Z,22.69
2016-12-10T12:21:59.924Z,22.67
2016-12-10T12:23:10.277Z,22.69
2016-12-10T12:24:20.317Z,22.46
2016-12-10T12:25:30.662Z,22.22
2016-12-10T12:26:41.009Z,21.94
2016-12-10T12:27:50.771Z,21.73
2016-12-10T12:29:00.504Z,21.52
2016-12-10T12:30:10.540Z,21.58
2016-12-10T12:31:20.881Z,22.2
2016-12-10T12:32:30.914Z,22.57
2016-12-10T12:33:41.289Z,22.89
2016-12-10T12:34:51.003Z,22.91
2016-12-10T12:36:01.588Z,22.63
2016-12-10T12:37:11.918Z,22.23
2016-12-10T12:38:21.332Z,21.85
2016-12-10T12:39:31.064Z,21.64
2016-12-10T12:40:41.140Z,21.41
2016-12-10T12:41:51.182Z,21.21
2016-12-10T12:43:01.211Z,20.94
2016-12-10T12:44:11.236Z,20.67
2016-12-10T12:45:21.264Z,20.54
2016-12-10T12:46:31.299Z,20.37
2016-12-10T12:47:41.326Z,20.26
2016-12-10T12:48:51.665Z,20.25
2016-12-10T12:50:01.410Z,20.18
2016-12-10T12:51:11.753Z,20.1
2016-12-10T12:52:21.783Z,20.01
2016-12-10T12:53:31.813Z,19.93
2016-12-10T12:54:42.157Z,19.83
2016-12-10T12:55:52.189Z,19.78
2016-12-10T12:57:02.210Z,19.65
2016-12-10T12:58:12.555Z,19.49
2016-12-10T12:59:22.584Z,19.34
2016-12-10T13:00:32.620Z,19.31
2016-12-10T13:01:42.368Z,19.25
2016-12-10T13:02:52.721Z,19.12
2016-12-10T13:04:02.758Z,18.94
2016-12-10T13:05:12.472Z,18.96
2016-12-10T13:06:21.876Z,18.87
2016-12-10T13:07:32.207Z,18.89
2016-12-10T13:08:42.241Z,18.72
2016-12-10T13:09:52.271Z,18.6
2016-12-10T13:11:02.607Z,18.53
2016-12-10T13:12:12.349Z,18.53
2016-12-10T13:13:22.366Z,18.38
2016-12-10T13:14:32.397Z,18.36
2016-12-10T13:15:42.730Z,18.2
2016-12-10T13:16:52.765Z,18.19
2016-12-10T13:18:02.786Z,18.08
2016-12-10T13:19:12.526Z,18.01
2016-12-10T13:20:22.861Z,17.87
2016-12-10T13:21:32.901Z,17.84
2016-12-10T13:22:42.934Z,17.74
2016-12-10T13:23:53.292Z,17.69
2016-12-10T13:25:03.312Z,17.63
2016-12-10T13:26:13.324Z,17.62
2016-12-10T13:27:23.043Z,17.46
2016-12-10T13:28:33.392Z,17.4
2016-12-10T13:29:43.107Z,17.32
2016-12-10T13:30:53.140Z,17.31
2016-12-10T13:32:03.484Z,17.31
2016-12-10T13:33:13.537Z,17.17
2016-12-10T13:34:23.566Z,17.27
2016-12-10T13:35:33.589Z,17.1
2016-12-10T13:36:43.936Z,17.13
2016-12-10T13:37:53.955Z,17.09
2016-12-10T13:39:04.304Z,17.13
2016-12-10T13:40:14.640Z,17.07
2016-12-10T13:41:24.658Z,17.18
2016-12-10T13:42:34.676Z,17.13
2016-12-10T13:43:45.021Z,17.24
2016-12-10T13:44:55.387Z,17.27
2016-12-10T13:46:05.415Z,17.13
2016-12-10T13:47:15.442Z,17.1
2016-12-10T13:48:25.483Z,17.07
2016-12-10T13:49:36.056Z,17.12
2016-12-10T13:50:46.403Z,17.18
2016-12-10T13:51:56.112Z,17.15
2016-12-10T13:53:06.455Z,17.1
2016-12-10T13:54:16.784Z,17.07
2016-12-10T13:55:26.830Z,17.05
2016-12-10T13:56:37.200Z,17.02
2016-12-10T13:57:47.239Z,16.94
2016-12-10T13:58:57.588Z,16.91
2016-12-10T14:00:07.658Z,16.88
2016-12-10T14:01:18.207Z,16.87
2016-12-10T14:02:28.212Z,16.88
2016-12-10T14:03:38.568Z,16.92
2016-12-10T14:04:48.602Z,16.92
2016-12-10T14:05:58.655Z,16.9
2016-12-10T14:07:09.008Z,16.8
2016-12-10T14:08:19.064Z,16.81
2016-12-10T14:09:29.439Z,16.87
2016-12-10T14:10:39.779Z,16.84
2016-12-10T14:11:50.122Z,16.82
2016-12-10T14:13:00.498Z,16.9
2016-12-10T14:14:10.877Z,16.76
2016-12-10T14:15:20.302Z,16.67
2016-12-10T14:16:30.357Z,16.72
2016-12-10T14:17:40.736Z,16.54
2016-12-10T14:18:50.795Z,16.63
2016-12-10T14:20:00.912Z,16.48
2016-12-10T14:21:10.673Z,16.42
2016-12-10T14:22:20.716Z,16.42
2016-12-10T14:23:30.811Z,16.34
2016-12-10T14:24:40.606Z,16.36
2016-12-10T14:25:50.948Z,16.39
2016-12-10T14:27:01.030Z,16.36
2016-12-10T14:28:11.434Z,16.22
2016-12-10T14:29:21.235Z,16.26
2016-12-10T14:30:31.276Z,16.21
2016-12-10T14:31:41.660Z,16.16
2016-12-10T14:32:51.773Z,16.08
2016-12-10T14:34:02.125Z,16.04
2016-12-10T14:35:12.290Z,15.99
2016-12-10T14:36:22.014Z,15.98
2016-12-10T14:37:32.130Z,15.86
2016-12-10T14:38:42.567Z,15.81
2016-12-10T14:39:52.647Z,15.83
2016-12-10T14:41:02.390Z,15.77
2016-12-10T14:42:12.496Z,15.78
2016-12-10T14:43:22.903Z,15.7
2016-12-10T14:44:33.035Z,15.75
2016-12-10T14:45:43.403Z,15.71
2016-12-10T14:46:53.803Z,15.65
2016-12-10T14:48:04.178Z,15.58
2016-12-10T14:49:14.235Z,15.67
2016-12-10T14:50:24.619Z,15.58
2016-12-10T14:51:34.740Z,15.56
2016-12-10T14:52:45.148Z,15.62
2016-12-10T14:53:55.218Z,15.52
2016-12-10T14:55:05.261Z,15.45
2016-12-10T14:56:15.310Z,15.43
2016-12-10T14:57:25.362Z,15.33
2016-12-10T14:58:35.445Z,15.34
2016-12-10T14:59:45.504Z,15.3
2016-12-10T15:00:55.578Z,15.16
2016-12-10T15:02:05.959Z,15.33
2016-12-10T15:03:15.712Z,15.3
2016-12-10T15:04:25.447Z,15.25
2016-12-10T15:05:35.858Z,15.18
2016-12-10T15:06:45.915Z,15.13
2016-12-10T15:07:56.268Z,15.16
2016-12-10T15:09:06.638Z,15.13
2016-12-10T15:10:17.043Z,15.01
2016-12-10T15:11:27.088Z,15.05
2016-12-10T15:12:37.477Z,14.97
2016-12-10T15:13:47.854Z,15.02
2016-12-10T15:14:57.894Z,14.89
2016-12-10T15:16:07.956Z,14.95
2016-12-10T15:17:18.325Z,14.71
2016-12-10T15:18:28.369Z,14.74
2016-12-10T15:19:38.709Z,14.77
2016-12-10T15:20:49.070Z,14.75
2016-12-10T15:21:59.437Z,14.67
2016-12-10T15:23:09.498Z,14.67
2016-12-10T15:24:19.232Z,14.59
2016-12-10T15:25:28.956Z,14.7
2016-12-10T15:26:39.323Z,14.69
2016-12-10T15:27:49.394Z,14.74
2016-12-10T15:28:59.096Z,14.59
2016-12-10T15:30:09.437Z,14.56
2016-12-10T15:31:19.475Z,14.66
2016-12-10T15:32:29.506Z,14.61
2016-12-10T15:33:39.560Z,14.51
2016-12-10T15:34:49.917Z,14.48
2016-12-10T15:36:00.278Z,14.48
2016-12-10T15:37:10.632Z,14.49
2016-12-10T15:38:21.001Z,14.42
2016-12-10T15:39:31.047Z,14.51
2016-12-10T15:40:41.085Z,14.46
2016-12-10T15:41:51.095Z,14.41
2016-12-10T15:43:01.433Z,14.38
2016-12-10T15:44:11.811Z,14.42
2016-12-10T15:45:21.880Z,14.39
2016-12-10T15:46:31.892Z,14.27
2016-12-10T15:47:42.254Z,14.38
2016-12-10T15:48:52.350Z,14.34
2016-12-10T15:50:02.434Z,14.33
2016-12-10T15:51:12.150Z,14.38
2016-12-10T15:52:22.511Z,14.36
2016-12-10T15:53:32.546Z,14.33
2016-12-10T15:54:42.974Z,14.3
2016-12-10T15:55:53.054Z,14.28
2016-12-10T15:57:03.423Z,14.23
2016-12-10T15:58:13.798Z,14.24
2016-12-10T15:59:23.848Z,14.26
2016-12-10T16:00:34.227Z,14.24
2016-12-10T16:01:43.979Z,14.27
2016-12-10T16:02:53.705Z,14.19
2016-12-10T16:04:03.769Z,14.31
2016-12-10T16:05:13.818Z,14.23
2016-12-10T16:06:24.205Z,14.19
2016-12-10T16:07:34.538Z,14.19
2016-12-10T16:08:44.897Z,14.28
2016-12-10T16:09:55.253Z,14.23
2016-12-10T16:11:05.524Z,14.21
2016-12-10T16:12:15.596Z,14.2
2016-12-10T16:13:25.316Z,14.19
2016-12-10T16:14:35.681Z,14.24
2016-12-10T16:15:46.009Z,14.11
2016-12-10T16:16:56.079Z,14.06
2016-12-10T16:18:06.477Z,14.08
2016-12-10T16:19:16.180Z,14.11
2016-12-10T16:20:25.616Z,14.08
2016-12-10T16:21:36.012Z,14.02
2016-12-10T16:22:45.437Z,14.08
2016-12-10T16:23:55.221Z,13.97
2016-12-10T16:25:05.013Z,13.97
2016-12-10T16:26:15.378Z,13.94
2016-12-10T16:27:25.721Z,13.94
2016-12-10T16:28:35.748Z,13.95
2016-12-10T16:29:45.466Z,13.91
2016-12-10T16:30:55.817Z,13.94
2016-12-10T16:32:05.881Z,14.02
2016-12-10T16:33:16.029Z,13.88
2016-12-10T16:34:26.111Z,13.93
2016-12-10T16:35:35.563Z,14.01
2016-12-10T16:36:45.914Z,13.9
2016-12-10T16:37:55.954Z,14.02
2016-12-10T16:39:06.315Z,13.97
2016-12-10T16:40:16.361Z,13.91
2016-12-10T16:41:26.396Z,13.9
2016-12-10T16:42:36.471Z,13.93
2016-12-10T16:43:46.836Z,13.91
2016-12-10T16:44:56.951Z,13.91
2016-12-10T16:46:06.984Z,13.94
2016-12-10T16:47:17.014Z,13.87
2016-12-10T16:48:27.351Z,13.86
2016-12-10T16:49:37.721Z,14.01
2016-12-10T16:50:48.091Z,13.86
2016-12-10T16:51:58.436Z,13.95
2016-12-10T16:53:08.763Z,13.94
2016-12-10T16:54:19.118Z,13.9
2016-12-10T16:55:29.511Z,13.91
2016-12-10T16:56:39.553Z,13.93
2016-12-10T16:57:49.937Z,13.9
2016-12-10T16:58:59.965Z,13.88
2016-12-10T17:00:09.994Z,13.9
2016-12-10T17:01:19.729Z,13.94
2016-12-10T17:02:29.762Z,13.88
2016-12-10T17:03:40.099Z,13.86
2016-12-10T17:04:50.160Z,13.88
2016-12-10T17:05:59.576Z,13.93
2016-12-10T17:07:09.608Z,13.91
2016-12-10T17:08:19.965Z,13.91
2016-12-10T17:09:30.314Z,13.86
2016-12-10T17:10:40.664Z,13.94
2016-12-10T17:11:51.005Z,13.93
2016-12-10T17:13:00.771Z,13.97
2016-12-10T17:14:10.199Z,13.87
2016-12-10T17:15:20.234Z,13.93
2016-12-10T17:16:29.976Z,13.88
2016-12-10T17:17:40.012Z,13.86
2016-12-10T17:18:50.058Z,13.93
2016-12-10T17:20:00.439Z,13.91
2016-12-10T17:21:10.492Z,13.87
2016-12-10T17:22:20.861Z,13.93
2016-12-10T17:23:30.932Z,13.87
2016-12-10T17:24:41.259Z,13.93
2016-12-10T17:25:51.300Z,13.87
2016-12-10T17:27:01.341Z,13.88
2016-12-10T17:28:10.761Z,13.91
2016-12-10T17:29:20.811Z,13.84
2016-12-10T17:30:30.896Z,13.94
2016-12-10T17:31:40.934Z,13.9
2016-12-10T17:32:50.973Z,13.88
2016-12-10T17:34:01.033Z,13.84
2016-12-10T17:35:11.370Z,13.84
2016-12-10T17:36:21.719Z,13.9
2016-12-10T17:37:32.098Z,13.87
2016-12-10T17:38:42.443Z,13.83
2016-12-10T17:39:52.799Z,13.9
2016-12-10T17:41:03.144Z,13.84
2016-12-10T17:42:13.195Z,13.78
2016-12-10T17:43:23.227Z,13.84
2016-12-10T17:44:33.570Z,13.83
2016-12-10T17:45:43.915Z,13.79
2016-12-10T17:46:53.647Z,13.78
2016-12-10T17:48:03.989Z,13.78
2016-12-10T17:49:14.324Z,13.84
2016-12-10T17:50:24.392Z,13.86
2016-12-10T17:51:34.420Z,13.69
2016-12-10T17:52:44.776Z,13.75
2016-12-10T17:53:54.811Z,13.7
2016-12-10T17:55:05.180Z,13.81
2016-12-10T17:56:15.536Z,13.72
2016-12-10T17:57:25.269Z,13.78
2016-12-10T17:58:35.616Z,13.7
2016-12-10T17:59:45.650Z,13.81
2016-12-10T18:00:55.979Z,13.7
2016-12-10T18:02:06.328Z,13.73
2016-12-10T18:03:16.687Z,13.75
2016-12-10T18:04:26.413Z,13.73
2016-12-10T18:05:36.735Z,13.69
2016-12-10T18:06:47.087Z,13.72
2016-12-10T18:07:56.802Z,13.73
2016-12-10T18:09:06.845Z,13.72
2016-12-10T18:10:17.221Z,13.69
2016-12-10T18:11:26.981Z,13.7
2016-12-10T18:12:36.685Z,13.73
2016-12-10T18:13:46.967Z,13.69
2016-12-10T18:14:57.012Z,13.7
2016-12-10T18:16:07.357Z,13.69
2016-12-10T18:17:17.751Z,13.72
2016-12-10T18:18:27.761Z,13.72
2016-12-10T18:19:37.201Z,13.69
2016-12-10T18:20:47.285Z,13.72
2016-12-10T18:21:57.637Z,13.76
2016-12-10T18:23:07.974Z,13.7
2016-12-10T18:24:18.338Z,13.73
2016-12-10T18:25:28.699Z,13.69
2016-12-10T18:26:39.094Z,13.73
2016-12-10T18:27:49.469Z,13.72
2016-12-10T18:28:59.813Z,13.72
2016-12-10T18:30:09.855Z,13.75
2016-12-10T18:31:20.107Z,13.73
2016-12-10T18:32:30.483Z,13.76
2016-12-10T18:33:40.820Z,13.68
2016-12-10T18:34:51.155Z,13.76
2016-12-10T18:36:01.539Z,13.7
2016-12-10T18:37:11.754Z,13.72
2016-12-10T18:38:21.788Z,13.73
2016-12-10T18:39:32.136Z,13.76
2016-12-10T18:40:42.191Z,13.76
2016-12-10T18:41:52.230Z,13.75
2016-12-10T18:43:02.289Z,13.72
2016-12-10T18:44:12.641Z,13.7